Terminal Aerodrome Forecast
Issued by NWS Wakefield, VA

Home | Current Version | Previous Version | Text Only | Print | Product List | Glossary On
Versions: 1 2 3 4 5 6 7 8 9 10 11 12 13 14 15 16 17 18 19 20
086
FTUS41 KAKQ 180542
TAFORF
TAF
KORF 180542Z 1806/1906 19008KT P6SM SKC
     FM180900 19006KT P6SM BKN020
     FM181200 20008KT P6SM BKN040
     FM181700 20010KT P6SM SCT070
     FM182000 19012KT P6SM BKN100=

USA.gov is the U.S. government's official web portal to all federal, state and local government web resources and services.